Aeroporto :
LOGIN :

Iscrizione | Disclaimer

   EN    FR    IT 

 










Sommario :    VFR   VFR Marginale   IFR   IFR Intensivo   IFR Molto Intensivo
Visibilità : 
Base nubi : 
>= 8 km
>= 3000ft
5 / 8 km
1000 / 3000 ft
1500m / 5 km
500 / 1000 ft
800 / 1500m
200 / 500 ft
< 800m
< 200 ft
Simboli :   Temporali  Nebbia  Neve Forte  Precipitazioni Forti  Vento > 20 kt
SIGMETs :   Varie  Temporali  Ghiacco  Turbolenza  Onda orograficha  Ceneri Vulcaniche






- Altitudine del aeroporto : 1000 ft
- Codice IATA : PEV


LHPP - Pécs Pogany

ULTIMO METAR :
  • 230115Z AUTO 32009KT 280V350 CAVOK 23/18 Q1015

METARs OBSOLETI :
  • 230045Z AUTO 33007KT 300V360 CAVOK 22/17 Q1015
  • 230015Z AUTO 31005KT 280V350 CAVOK 23/17 Q1015
  • 222345Z AUTO 32005KT 290V360 CAVOK 23/17 Q1015
  • 222315Z AUTO VRB02KT CAVOK 22/18 Q1015
  • 222245Z AUTO 35007KT 320V030 CAVOK 25/17 Q1015
  • 222215Z AUTO 36009KT CAVOK 25/17 Q1015
  • 222145Z AUTO 34011KT CAVOK 24/17 Q1015
  • 222115Z AUTO 34014KT CAVOK 25/17 Q1015
  • 222045Z AUTO 33013KT CAVOK 25/17 Q1014
  • 222015Z AUTO 31010KT CAVOK 24/18 Q1014

Previsioni scadute.



MetMap, La meteo Aeronautica in un colpo d'occhio ! - Copyright ORBIFLY Dicembre 2007 - Disclaimer

ORBIFLY MET'MAP TEAM :

Programmazione e sviluppo : Alexandra Zaïnal
Concezione : Baudouin d'Aumeries
Supporto tecnico e logistico : Manuel Goepfert
Aiuto : Marc-Olivier Méhu
Aiuto per la traduzione : Arnaldo La Scala




FONTI E CREDITI :

   NOAA